Scottish Viking — IBDZ — position and weather

sailwx.info

Track history (hours):
 
Tides and Currents Weather Stations Pressure Air Temp Water Temp Dewpoint Dewpoint Depression Visibility Wind Speed Wind Dir Waves Ship Positions

Scottish Viking

Last reported at 2015-Aug-27 06:25 UTC. Time now 2015-Aug-29 09:25 UTC.
Position N 57°24' E 021°33'.

Length 186 m; draft 6.2 m.

Type: Ship. MMSI: 247265800.

Date/timePositionNaut miles runAvg speedWind from/ knotsBaromVisibWave heightAir tempDewpointWater temp
2015-Aug-27 06:25N 57°24' E 021°33'1313.9
2015-Aug-27 05:29N 57°32' E 021°15'6019.2
2015-Aug-27 02:23N 57°59' E 019°35'1212.2
2015-Aug-27 01:22N 58°09' E 019°20'61 1.5
2015-Aug-25 07:25N 58°54' E 018°01'1517.6
2015-Aug-25 06:34N 58°39' E 017°58'2222.4
2015-Aug-25 05:34N 58°24' E 018°31'1414.0
2015-Aug-25 04:33N 58°18' E 018°55'2114.1
2015-Aug-25 03:06N 58°07' E 019°28'814.2
2015-Aug-25 02:33N 58°03' E 019°40'1414.1
2015-Aug-25 01:34N 57°57' E 020°04'5 0.4
2015-Aug-24 13:33N 57°58' E 019°54'1413.5
2015-Aug-24 12:33N 58°05' E 019°33'1413.6
2015-Aug-24 11:31N 58°12' E 019°10'1313.5
2015-Aug-24 10:33N 58°20' E 018°50'1413.7
2015-Aug-24 09:33N 58°28' E 018°29'1413.6
2015-Aug-24 08:33N 58°36' E 018°07'1210.7
2015-Aug-24 07:29N 58°45' E 017°54'10 3.4
2015-Aug-24 04:33N 58°55' E 017°60'1716.6
2015-Aug-24 03:33N 58°38' E 018°00'2222.4
2015-Aug-24 02:33N 58°25' E 018°35'3122.2
2015-Aug-24 01:10N 58°08' E 019°23'2314.2
2015-Aug-23 23:33N 57°57' E 020°01'26 2.6
2015-Aug-23 13:17N 57°42' E 020°42'1517.6
2015-Aug-23 12:26N 57°49' E 020°17'1617.9
2015-Aug-23 11:34N 57°58' E 019°53'1818.1
2015-Aug-23 10:34N 58°08' E 019°24'2118.3
2015-Aug-23 09:23N 58°20' E 018°51'1818.3
2015-Aug-23 08:24N 58°30' E 018°23'2018.1
2015-Aug-23 07:17N 58°43' E 017°52'8 2.0
2015-Aug-23 03:14N 58°50' E 017°60'710.0
2015-Aug-23 02:33N 58°45' E 018°09'2913.2
2015-Aug-23 00:23N 58°24' E 018°48'1314.1
2015-Aug-22 23:30N 58°14' E 019°02'1713.9
2015-Aug-22 22:17N 58°06' E 019°30'2413.8
2015-Aug-22 20:30N 57°41' E 019°31'1914.1
2015-Aug-22 19:08N 57°37' E 020°06'1114.0
2015-Aug-22 18:20N 57°34' E 020°27'1113.9
2015-Aug-22 17:34N 57°32' E 020°47'1414.1
2015-Aug-22 16:34N 57°29' E 021°12'12 1.2
2015-Aug-22 06:20N 57°24' E 021°33'1619.7
2015-Aug-22 05:32N 57°33' E 021°09'1414.4
2015-Aug-22 04:33N 57°40' E 020°47'1414.1
2015-Aug-22 03:33N 57°48' E 020°24'1514.3
2015-Aug-22 02:32N 57°55' E 020°01'1414.2
2015-Aug-22 01:33N 58°03' E 019°38'1614.1
2015-Aug-22 00:28N 58°11' E 019°13'1614.1
2015-Aug-21 23:18N 58°22' E 018°51'1014.0
2015-Aug-21 22:33N 58°30' E 018°38'1414.0
2015-Aug-21 21:33N 58°40' E 018°19'1413.8
2015-Aug-21 20:31N 58°50' E 017°60'141 3.7
2015-Aug-20 06:19N 57°24' E 021°32'2320.9
2015-Aug-20 05:12N 57°38' E 020°58'6814.6
2015-Aug-20 00:33N 58°13' E 019°08'4813.9
2015-Aug-19 21:08N 58°41' E 017°54'79 3.6
2015-Aug-18 23:26N 57°56' E 019°58'1714.0
2015-Aug-18 22:14N 58°06' E 019°32'913.7
2015-Aug-18 21:33N 58°11' E 019°17'1713.3
2015-Aug-18 20:15N 58°22' E 018°51'  
Track history (hours):
 
Tides and Currents Weather Stations Pressure Air Temp Water Temp Dewpoint Dewpoint Depression Visibility Wind Speed Wind Dir Waves Ship Positions

Scottish Viking

Last reported at 2015-Aug-27 06:25 UTC. Time now 2015-Aug-29 09:25 UTC.
Position N 57°24' E 021°33'.

Length 186 m; draft 6.2 m.

Type: Ship. MMSI: 247265800.

Date/timePositionNaut miles runAvg speedWind from/ knotsBaromVisibWave heightAir tempDewpointWater temp
2015-Aug-27 06:25N 57°24' E 021°33'1313.9
2015-Aug-27 05:29N 57°32' E 021°15'6019.2
2015-Aug-27 02:23N 57°59' E 019°35'1212.2
2015-Aug-27 01:22N 58°09' E 019°20'61 1.5
2015-Aug-25 07:25N 58°54' E 018°01'1517.6
2015-Aug-25 06:34N 58°39' E 017°58'2222.4
2015-Aug-25 05:34N 58°24' E 018°31'1414.0
2015-Aug-25 04:33N 58°18' E 018°55'2114.1
2015-Aug-25 03:06N 58°07' E 019°28'814.2
2015-Aug-25 02:33N 58°03' E 019°40'1414.1
2015-Aug-25 01:34N 57°57' E 020°04'5 0.4
2015-Aug-24 13:33N 57°58' E 019°54'1413.5
2015-Aug-24 12:33N 58°05' E 019°33'1413.6
2015-Aug-24 11:31N 58°12' E 019°10'1313.5
2015-Aug-24 10:33N 58°20' E 018°50'1413.7
2015-Aug-24 09:33N 58°28' E 018°29'1413.6
2015-Aug-24 08:33N 58°36' E 018°07'1210.7
2015-Aug-24 07:29N 58°45' E 017°54'10 3.4
2015-Aug-24 04:33N 58°55' E 017°60'1716.6
2015-Aug-24 03:33N 58°38' E 018°00'2222.4
2015-Aug-24 02:33N 58°25' E 018°35'3122.2
2015-Aug-24 01:10N 58°08' E 019°23'2314.2
2015-Aug-23 23:33N 57°57' E 020°01'26 2.6
2015-Aug-23 13:17N 57°42' E 020°42'1517.6
2015-Aug-23 12:26N 57°49' E 020°17'1617.9
2015-Aug-23 11:34N 57°58' E 019°53'1818.1
2015-Aug-23 10:34N 58°08' E 019°24'2118.3
2015-Aug-23 09:23N 58°20' E 018°51'1818.3
2015-Aug-23 08:24N 58°30' E 018°23'2018.1
2015-Aug-23 07:17N 58°43' E 017°52'8 2.0
2015-Aug-23 03:14N 58°50' E 017°60'710.0
2015-Aug-23 02:33N 58°45' E 018°09'2913.2
2015-Aug-23 00:23N 58°24' E 018°48'1314.1
2015-Aug-22 23:30N 58°14' E 019°02'1713.9
2015-Aug-22 22:17N 58°06' E 019°30'2413.8
2015-Aug-22 20:30N 57°41' E 019°31'1914.1
2015-Aug-22 19:08N 57°37' E 020°06'1114.0
2015-Aug-22 18:20N 57°34' E 020°27'1113.9
2015-Aug-22 17:34N 57°32' E 020°47'1414.1
2015-Aug-22 16:34N 57°29' E 021°12'12 1.2
2015-Aug-22 06:20N 57°24' E 021°33'1619.7
2015-Aug-22 05:32N 57°33' E 021°09'1414.4
2015-Aug-22 04:33N 57°40' E 020°47'1414.1
2015-Aug-22 03:33N 57°48' E 020°24'1514.3
2015-Aug-22 02:32N 57°55' E 020°01'1414.2
2015-Aug-22 01:33N 58°03' E 019°38'1614.1
2015-Aug-22 00:28N 58°11' E 019°13'1614.1
2015-Aug-21 23:18N 58°22' E 018°51'1014.0
2015-Aug-21 22:33N 58°30' E 018°38'1414.0
2015-Aug-21 21:33N 58°40' E 018°19'1413.8
2015-Aug-21 20:31N 58°50' E 017°60'141 3.7
2015-Aug-20 06:19N 57°24' E 021°32'2320.9
2015-Aug-20 05:12N 57°38' E 020°58'6814.6
2015-Aug-20 00:33N 58°13' E 019°08'4813.9
2015-Aug-19 21:08N 58°41' E 017°54'79 3.6
2015-Aug-18 23:26N 57°56' E 019°58'1714.0
2015-Aug-18 22:14N 58°06' E 019°32'913.7
2015-Aug-18 21:33N 58°11' E 019°17'1713.3
2015-Aug-18 20:15N 58°22' E 018°51'  

Dump ship's entire track history